sensor_id;sensor_type;location;lat;lon;timestamp;P1;durP1;ratioP1;P2;durP2;ratioP2
61572;SDS011;47465;43.094;12.434;2022-08-03T00:01:17;5.78;;;4.88;;
61572;SDS011;47465;43.094;12.434;2022-08-03T00:03:43;6.63;;;5.10;;
61572;SDS011;47465;43.094;12.434;2022-08-03T00:06:10;5.85;;;4.97;;
61572;SDS011;47465;43.094;12.434;2022-08-03T00:08:36;6.45;;;5.30;;
61572;SDS011;47465;43.094;12.434;2022-08-03T00:11:02;7.30;;;5.20;;
61572;SDS011;47465;43.094;12.434;2022-08-03T00:13:29;6.25;;;5.35;;
61572;SDS011;47465;43.094;12.434;2022-08-03T00:15:55;7.88;;;5.65;;
61572;SDS011;47465;43.094;12.434;2022-08-03T00:18:21;6.55;;;5.00;;
61572;SDS011;47465;43.094;12.434;2022-08-03T00:20:47;8.63;;;5.45;;
61572;SDS011;47465;43.094;12.434;2022-08-03T00:23:14;6.80;;;5.28;;
61572;SDS011;47465;43.094;12.434;2022-08-03T00:25:40;8.85;;;5.70;;
61572;SDS011;47465;43.094;12.434;2022-08-03T00:28:06;6.43;;;5.53;;
61572;SDS011;47465;43.094;12.434;2022-08-03T00:30:34;5.72;;;5.10;;
61572;SDS011;47465;43.094;12.434;2022-08-03T00:33:01;7.15;;;5.15;;
61572;SDS011;47465;43.094;12.434;2022-08-03T00:35:27;6.95;;;5.82;;
61572;SDS011;47465;43.094;12.434;2022-08-03T00:37:53;6.32;;;4.90;;
61572;SDS011;47465;43.094;12.434;2022-08-03T00:40:22;6.95;;;5.22;;
61572;SDS011;47465;43.094;12.434;2022-08-03T00:42:49;7.30;;;5.13;;
61572;SDS011;47465;43.094;12.434;2022-08-03T00:45:18;6.28;;;5.28;;
61572;SDS011;47465;43.094;12.434;2022-08-03T00:47:47;7.63;;;5.53;;
61572;SDS011;47465;43.094;12.434;2022-08-03T00:50:13;7.63;;;5.30;;
61572;SDS011;47465;43.094;12.434;2022-08-03T00:52:39;7.90;;;5.40;;
61572;SDS011;47465;43.094;12.434;2022-08-03T00:55:11;6.57;;;5.18;;
61572;SDS011;47465;43.094;12.434;2022-08-03T00:57:37;6.97;;;5.22;;
61572;SDS011;47465;43.094;12.434;2022-08-03T01:00:07;6.07;;;5.47;;
61572;SDS011;47465;43.094;12.434;2022-08-03T01:02:34;8.35;;;5.30;;
61572;SDS011;47465;43.094;12.434;2022-08-03T01:05:02;6.65;;;5.55;;
61572;SDS011;47465;43.094;12.434;2022-08-03T01:07:32;6.80;;;5.53;;
61572;SDS011;47465;43.094;12.434;2022-08-03T01:10:09;6.47;;;5.30;;
61572;SDS011;47465;43.094;12.434;2022-08-03T01:12:42;6.88;;;5.43;;
61572;SDS011;47465;43.094;12.434;2022-08-03T01:15:14;6.32;;;5.32;;
61572;SDS011;47465;43.094;12.434;2022-08-03T01:17:50;6.60;;;5.88;;
61572;SDS011;47465;43.094;12.434;2022-08-03T01:20:22;7.43;;;5.47;;
61572;SDS011;47465;43.094;12.434;2022-08-03T01:22:59;8.45;;;5.28;;
61572;SDS011;47465;43.094;12.434;2022-08-03T01:25:39;5.95;;;5.35;;
61572;SDS011;47465;43.094;12.434;2022-08-03T01:28:23;8.52;;;5.75;;
61572;SDS011;47465;43.094;12.434;2022-08-03T01:31:05;7.28;;;5.80;;
61572;SDS011;47465;43.094;12.434;2022-08-03T01:33:35;6.70;;;5.60;;
61572;SDS011;47465;43.094;12.434;2022-08-03T01:36:06;8.77;;;6.03;;
61572;SDS011;47465;43.094;12.434;2022-08-03T01:38:38;6.90;;;6.20;;
61572;SDS011;47465;43.094;12.434;2022-08-03T01:41:08;7.72;;;6.85;;
61572;SDS011;47465;43.094;12.434;2022-08-03T01:43:38;8.52;;;7.40;;
61572;SDS011;47465;43.094;12.434;2022-08-03T01:46:08;9.30;;;6.93;;
61572;SDS011;47465;43.094;12.434;2022-08-03T01:48:36;7.72;;;6.90;;
61572;SDS011;47465;43.094;12.434;2022-08-03T01:51:04;8.45;;;6.70;;
61572;SDS011;47465;43.094;12.434;2022-08-03T01:53:32;10.00;;;7.35;;
61572;SDS011;47465;43.094;12.434;2022-08-03T01:55:59;9.48;;;7.35;;
61572;SDS011;47465;43.094;12.434;2022-08-03T01:58:28;12.35;;;7.65;;
61572;SDS011;47465;43.094;12.434;2022-08-03T02:00:55;10.10;;;7.53;;
61572;SDS011;47465;43.094;12.434;2022-08-03T02:03:26;9.95;;;7.45;;
61572;SDS011;47465;43.094;12.434;2022-08-03T02:05:54;8.38;;;7.05;;
61572;SDS011;47465;43.094;12.434;2022-08-03T02:08:21;8.60;;;7.30;;
61572;SDS011;47465;43.094;12.434;2022-08-03T02:10:49;8.02;;;7.07;;
61572;SDS011;47465;43.094;12.434;2022-08-03T02:13:17;9.80;;;7.15;;
61572;SDS011;47465;43.094;12.434;2022-08-03T02:15:45;8.57;;;7.35;;
61572;SDS011;47465;43.094;12.434;2022-08-03T02:18:12;8.57;;;7.68;;
61572;SDS011;47465;43.094;12.434;2022-08-03T02:20:42;9.63;;;7.00;;
61572;SDS011;47465;43.094;12.434;2022-08-03T02:25:36;7.72;;;6.85;;
61572;SDS011;47465;43.094;12.434;2022-08-03T02:28:07;11.10;;;7.50;;
61572;SDS011;47465;43.094;12.434;2022-08-03T02:30:36;9.55;;;7.57;;
61572;SDS011;47465;43.094;12.434;2022-08-03T02:33:06;8.48;;;6.75;;
61572;SDS011;47465;43.094;12.434;2022-08-03T02:35:36;7.82;;;6.93;;
61572;SDS011;47465;43.094;12.434;2022-08-03T02:38:07;8.13;;;6.95;;
61572;SDS011;47465;43.094;12.434;2022-08-03T02:40:36;9.02;;;6.82;;
61572;SDS011;47465;43.094;12.434;2022-08-03T02:45:34;8.82;;;6.57;;
61572;SDS011;47465;43.094;12.434;2022-08-03T02:48:03;7.20;;;6.50;;
61572;SDS011;47465;43.094;12.434;2022-08-03T02:50:31;8.38;;;6.75;;
61572;SDS011;47465;43.094;12.434;2022-08-03T02:52:59;8.23;;;7.37;;
61572;SDS011;47465;43.094;12.434;2022-08-03T02:55:28;9.75;;;7.15;;
61572;SDS011;47465;43.094;12.434;2022-08-03T02:57:57;10.05;;;7.60;;
61572;SDS011;47465;43.094;12.434;2022-08-03T03:00:24;10.23;;;7.07;;
61572;SDS011;47465;43.094;12.434;2022-08-03T03:02:51;9.52;;;7.15;;
61572;SDS011;47465;43.094;12.434;2022-08-03T03:05:18;11.27;;;7.50;;
61572;SDS011;47465;43.094;12.434;2022-08-03T03:07:44;7.53;;;6.75;;
61572;SDS011;47465;43.094;12.434;2022-08-03T03:10:11;10.07;;;7.57;;
61572;SDS011;47465;43.094;12.434;2022-08-03T03:12:39;9.60;;;7.53;;
61572;SDS011;47465;43.094;12.434;2022-08-03T03:15:07;10.45;;;7.63;;
61572;SDS011;47465;43.094;12.434;2022-08-03T03:17:33;8.95;;;7.80;;
61572;SDS011;47465;43.094;12.434;2022-08-03T03:20:01;8.73;;;7.60;;
61572;SDS011;47465;43.094;12.434;2022-08-03T03:22:28;9.43;;;7.78;;
61572;SDS011;47465;43.094;12.434;2022-08-03T03:24:57;9.45;;;7.88;;
61572;SDS011;47465;43.094;12.434;2022-08-03T03:27:24;11.35;;;7.55;;
61572;SDS011;47465;43.094;12.434;2022-08-03T03:29:51;12.05;;;8.13;;
61572;SDS011;47465;43.094;12.434;2022-08-03T03:32:18;11.10;;;7.97;;
61572;SDS011;47465;43.094;12.434;2022-08-03T03:34:44;9.20;;;7.95;;
61572;SDS011;47465;43.094;12.434;2022-08-03T03:37:12;8.90;;;8.00;;
61572;SDS011;47465;43.094;12.434;2022-08-03T03:39:38;10.95;;;8.25;;
61572;SDS011;47465;43.094;12.434;2022-08-03T03:42:04;10.50;;;8.43;;
61572;SDS011;47465;43.094;12.434;2022-08-03T03:44:30;11.85;;;8.68;;
61572;SDS011;47465;43.094;12.434;2022-08-03T03:46:58;9.90;;;8.07;;
61572;SDS011;47465;43.094;12.434;2022-08-03T03:49:24;11.63;;;8.30;;
61572;SDS011;47465;43.094;12.434;2022-08-03T03:51:51;10.30;;;8.23;;
61572;SDS011;47465;43.094;12.434;2022-08-03T03:54:18;9.95;;;8.30;;
61572;SDS011;47465;43.094;12.434;2022-08-03T03:56:44;10.07;;;8.43;;
61572;SDS011;47465;43.094;12.434;2022-08-03T03:59:10;9.55;;;7.97;;
61572;SDS011;47465;43.094;12.434;2022-08-03T04:01:36;10.10;;;8.73;;
61572;SDS011;47465;43.094;12.434;2022-08-03T04:04:04;9.57;;;8.57;;
61572;SDS011;47465;43.094;12.434;2022-08-03T04:07:05;11.18;;;8.63;;
61572;SDS011;47465;43.094;12.434;2022-08-03T04:10:08;9.13;;;8.23;;
61572;SDS011;47465;43.094;12.434;2022-08-03T04:13:10;10.48;;;8.73;;
61572;SDS011;47465;43.094;12.434;2022-08-03T04:16:06;9.70;;;8.30;;
61572;SDS011;47465;43.094;12.434;2022-08-03T04:18:36;10.55;;;8.30;;
61572;SDS011;47465;43.094;12.434;2022-08-03T04:23:36;11.77;;;9.10;;
61572;SDS011;47465;43.094;12.434;2022-08-03T04:26:06;10.70;;;8.70;;
61572;SDS011;47465;43.094;12.434;2022-08-03T04:28:35;10.10;;;8.30;;
61572;SDS011;47465;43.094;12.434;2022-08-03T04:31:03;10.90;;;9.60;;
61572;SDS011;47465;43.094;12.434;2022-08-03T04:33:32;10.30;;;9.10;;
61572;SDS011;47465;43.094;12.434;2022-08-03T04:36:00;10.23;;;9.02;;
61572;SDS011;47465;43.094;12.434;2022-08-03T04:38:29;11.88;;;8.65;;
61572;SDS011;47465;43.094;12.434;2022-08-03T04:40:57;11.10;;;8.23;;
61572;SDS011;47465;43.094;12.434;2022-08-03T04:43:24;10.30;;;8.00;;
61572;SDS011;47465;43.094;12.434;2022-08-03T04:45:53;9.38;;;8.30;;
61572;SDS011;47465;43.094;12.434;2022-08-03T04:48:21;10.50;;;8.43;;
61572;SDS011;47465;43.094;12.434;2022-08-03T04:50:47;10.85;;;8.93;;
61572;SDS011;47465;43.094;12.434;2022-08-03T04:53:13;9.98;;;8.07;;
61572;SDS011;47465;43.094;12.434;2022-08-03T04:55:42;10.45;;;8.63;;
61572;SDS011;47465;43.094;12.434;2022-08-03T04:58:08;10.45;;;8.30;;
61572;SDS011;47465;43.094;12.434;2022-08-03T05:00:34;9.85;;;7.90;;
61572;SDS011;47465;43.094;12.434;2022-08-03T05:03:02;12.82;;;8.57;;
61572;SDS011;47465;43.094;12.434;2022-08-03T05:05:28;10.05;;;8.63;;
61572;SDS011;47465;43.094;12.434;2022-08-03T05:07:54;11.02;;;8.20;;
61572;SDS011;47465;43.094;12.434;2022-08-03T05:10:20;10.70;;;8.38;;
61572;SDS011;47465;43.094;12.434;2022-08-03T05:12:47;9.80;;;8.18;;
61572;SDS011;47465;43.094;12.434;2022-08-03T05:15:13;9.90;;;7.65;;
61572;SDS011;47465;43.094;12.434;2022-08-03T05:17:40;9.45;;;8.10;;
61572;SDS011;47465;43.094;12.434;2022-08-03T05:20:08;10.65;;;7.95;;
61572;SDS011;47465;43.094;12.434;2022-08-03T05:22:35;10.88;;;7.65;;
61572;SDS011;47465;43.094;12.434;2022-08-03T05:25:01;8.48;;;7.18;;
61572;SDS011;47465;43.094;12.434;2022-08-03T05:27:27;9.60;;;7.38;;
61572;SDS011;47465;43.094;12.434;2022-08-03T05:29:53;8.18;;;6.97;;
61572;SDS011;47465;43.094;12.434;2022-08-03T05:32:19;7.95;;;7.15;;
61572;SDS011;47465;43.094;12.434;2022-08-03T05:34:45;10.23;;;7.25;;
61572;SDS011;47465;43.094;12.434;2022-08-03T05:37:13;9.77;;;7.00;;
61572;SDS011;47465;43.094;12.434;2022-08-03T05:39:39;10.45;;;6.45;;
61572;SDS011;47465;43.094;12.434;2022-08-03T05:42:05;8.93;;;6.90;;
61572;SDS011;47465;43.094;12.434;2022-08-03T05:44:31;8.25;;;6.30;;
61572;SDS011;47465;43.094;12.434;2022-08-03T05:46:58;8.55;;;6.70;;
61572;SDS011;47465;43.094;12.434;2022-08-03T05:49:24;12.00;;;6.75;;
61572;SDS011;47465;43.094;12.434;2022-08-03T05:51:50;8.45;;;6.38;;
61572;SDS011;47465;43.094;12.434;2022-08-03T05:54:18;8.10;;;6.78;;
61572;SDS011;47465;43.094;12.434;2022-08-03T05:56:44;10.45;;;6.65;;
61572;SDS011;47465;43.094;12.434;2022-08-03T05:59:10;8.13;;;6.00;;
61572;SDS011;47465;43.094;12.434;2022-08-03T06:01:36;9.18;;;6.72;;
61572;SDS011;47465;43.094;12.434;2022-08-03T06:04:02;7.80;;;6.53;;
61572;SDS011;47465;43.094;12.434;2022-08-03T06:06:28;8.27;;;6.57;;
61572;SDS011;47465;43.094;12.434;2022-08-03T06:08:54;9.77;;;6.55;;
61572;SDS011;47465;43.094;12.434;2022-08-03T06:11:21;8.90;;;6.45;;
61572;SDS011;47465;43.094;12.434;2022-08-03T06:16:14;12.13;;;6.38;;
61572;SDS011;47465;43.094;12.434;2022-08-03T06:18:40;9.70;;;6.47;;
61572;SDS011;47465;43.094;12.434;2022-08-03T06:21:06;9.05;;;6.50;;
61572;SDS011;47465;43.094;12.434;2022-08-03T06:23:33;15.40;;;6.22;;
61572;SDS011;47465;43.094;12.434;2022-08-03T06:25:59;11.35;;;6.40;;
61572;SDS011;47465;43.094;12.434;2022-08-03T06:28:27;12.45;;;5.90;;
61572;SDS011;47465;43.094;12.434;2022-08-03T06:30:53;10.13;;;6.53;;
61572;SDS011;47465;43.094;12.434;2022-08-03T06:33:19;7.38;;;5.00;;
61572;SDS011;47465;43.094;12.434;2022-08-03T06:35:45;6.47;;;4.47;;
61572;SDS011;47465;43.094;12.434;2022-08-03T06:38:11;5.60;;;4.75;;
61572;SDS011;47465;43.094;12.434;2022-08-03T06:40:37;8.50;;;4.90;;
61572;SDS011;47465;43.094;12.434;2022-08-03T06:43:04;6.38;;;4.70;;
61572;SDS011;47465;43.094;12.434;2022-08-03T06:45:33;7.03;;;4.72;;
61572;SDS011;47465;43.094;12.434;2022-08-03T06:47:59;6.60;;;5.07;;
61572;SDS011;47465;43.094;12.434;2022-08-03T06:50:26;7.13;;;4.70;;
61572;SDS011;47465;43.094;12.434;2022-08-03T06:52:52;6.53;;;4.60;;
61572;SDS011;47465;43.094;12.434;2022-08-03T06:55:18;5.75;;;4.38;;
61572;SDS011;47465;43.094;12.434;2022-08-03T06:57:44;6.32;;;4.60;;
61572;SDS011;47465;43.094;12.434;2022-08-03T07:00:11;8.00;;;4.20;;
61572;SDS011;47465;43.094;12.434;2022-08-03T07:02:39;7.10;;;4.30;;
61572;SDS011;47465;43.094;12.434;2022-08-03T07:05:06;4.72;;;4.03;;
61572;SDS011;47465;43.094;12.434;2022-08-03T07:07:32;5.32;;;4.03;;
61572;SDS011;47465;43.094;12.434;2022-08-03T07:09:58;5.03;;;4.25;;
61572;SDS011;47465;43.094;12.434;2022-08-03T07:12:25;5.32;;;4.15;;
61572;SDS011;47465;43.094;12.434;2022-08-03T07:14:52;5.32;;;4.00;;
61572;SDS011;47465;43.094;12.434;2022-08-03T07:17:18;5.05;;;4.05;;
61572;SDS011;47465;43.094;12.434;2022-08-03T07:19:46;5.45;;;4.20;;
61572;SDS011;47465;43.094;12.434;2022-08-03T07:22:12;7.57;;;3.90;;
61572;SDS011;47465;43.094;12.434;2022-08-03T07:24:38;5.35;;;4.20;;
61572;SDS011;47465;43.094;12.434;2022-08-03T07:27:06;5.93;;;4.20;;
61572;SDS011;47465;43.094;12.434;2022-08-03T07:29:32;5.47;;;4.03;;
61572;SDS011;47465;43.094;12.434;2022-08-03T07:31:59;4.65;;;3.92;;
61572;SDS011;47465;43.094;12.434;2022-08-03T07:34:25;5.65;;;4.18;;
61572;SDS011;47465;43.094;12.434;2022-08-03T07:36:53;5.22;;;4.10;;
61572;SDS011;47465;43.094;12.434;2022-08-03T07:39:19;4.65;;;3.80;;
61572;SDS011;47465;43.094;12.434;2022-08-03T07:41:44;12.70;;;4.20;;
61572;SDS011;47465;43.094;12.434;2022-08-03T07:44:11;4.93;;;4.25;;
61572;SDS011;47465;43.094;12.434;2022-08-03T07:46:37;4.53;;;3.80;;
61572;SDS011;47465;43.094;12.434;2022-08-03T07:49:03;4.57;;;3.78;;
61572;SDS011;47465;43.094;12.434;2022-08-03T07:51:30;4.53;;;3.65;;
61572;SDS011;47465;43.094;12.434;2022-08-03T07:53:57;4.38;;;3.83;;
61572;SDS011;47465;43.094;12.434;2022-08-03T07:56:25;4.68;;;3.47;;
61572;SDS011;47465;43.094;12.434;2022-08-03T07:58:51;5.72;;;3.88;;
61572;SDS011;47465;43.094;12.434;2022-08-03T08:01:18;6.90;;;3.83;;
61572;SDS011;47465;43.094;12.434;2022-08-03T08:03:44;6.00;;;4.03;;
61572;SDS011;47465;43.094;12.434;2022-08-03T08:06:10;5.82;;;3.97;;
61572;SDS011;47465;43.094;12.434;2022-08-03T08:08:36;5.47;;;3.95;;
61572;SDS011;47465;43.094;12.434;2022-08-03T08:11:04;13.60;;;4.55;;
61572;SDS011;47465;43.094;12.434;2022-08-03T08:13:30;11.70;;;4.47;;
61572;SDS011;47465;43.094;12.434;2022-08-03T08:15:56;25.70;;;4.95;;
61572;SDS011;47465;43.094;12.434;2022-08-03T08:18:22;5.55;;;4.00;;
61572;SDS011;47465;43.094;12.434;2022-08-03T08:20:48;7.10;;;3.88;;
61572;SDS011;47465;43.094;12.434;2022-08-03T08:23:14;10.43;;;4.18;;
61572;SDS011;47465;43.094;12.434;2022-08-03T08:25:47;5.47;;;3.92;;
61572;SDS011;47465;43.094;12.434;2022-08-03T08:28:15;6.45;;;3.85;;
61572;SDS011;47465;43.094;12.434;2022-08-03T08:30:42;4.57;;;3.50;;
61572;SDS011;47465;43.094;12.434;2022-08-03T08:33:08;4.95;;;3.55;;
61572;SDS011;47465;43.094;12.434;2022-08-03T08:35:34;6.18;;;3.70;;
61572;SDS011;47465;43.094;12.434;2022-08-03T08:38:00;5.15;;;3.95;;
61572;SDS011;47465;43.094;12.434;2022-08-03T08:40:26;4.68;;;3.67;;
61572;SDS011;47465;43.094;12.434;2022-08-03T08:42:52;4.30;;;3.25;;
61572;SDS011;47465;43.094;12.434;2022-08-03T08:45:19;4.88;;;3.50;;
61572;SDS011;47465;43.094;12.434;2022-08-03T08:47:46;5.80;;;3.70;;
61572;SDS011;47465;43.094;12.434;2022-08-03T08:50:14;4.50;;;3.73;;
61572;SDS011;47465;43.094;12.434;2022-08-03T08:52:43;5.35;;;3.67;;
61572;SDS011;47465;43.094;12.434;2022-08-03T08:55:14;4.78;;;3.65;;
61572;SDS011;47465;43.094;12.434;2022-08-03T08:57:46;6.32;;;4.03;;
61572;SDS011;47465;43.094;12.434;2022-08-03T09:00:13;5.70;;;3.90;;
61572;SDS011;47465;43.094;12.434;2022-08-03T09:02:42;12.55;;;4.38;;
61572;SDS011;47465;43.094;12.434;2022-08-03T09:05:09;6.10;;;3.60;;
61572;SDS011;47465;43.094;12.434;2022-08-03T09:10:03;5.95;;;3.70;;
61572;SDS011;47465;43.094;12.434;2022-08-03T09:12:30;6.03;;;3.77;;
61572;SDS011;47465;43.094;12.434;2022-08-03T09:15:14;5.80;;;3.70;;
61572;SDS011;47465;43.094;12.434;2022-08-03T09:17:43;4.72;;;3.78;;
61572;SDS011;47465;43.094;12.434;2022-08-03T09:20:09;4.63;;;3.50;;
61572;SDS011;47465;43.094;12.434;2022-08-03T09:22:38;4.72;;;3.88;;
61572;SDS011;47465;43.094;12.434;2022-08-03T09:25:25;5.82;;;3.72;;
61572;SDS011;47465;43.094;12.434;2022-08-03T09:27:53;8.27;;;3.88;;
61572;SDS011;47465;43.094;12.434;2022-08-03T09:30:19;6.35;;;4.00;;
61572;SDS011;47465;43.094;12.434;2022-08-03T09:32:47;5.55;;;3.80;;
61572;SDS011;47465;43.094;12.434;2022-08-03T09:35:13;6.82;;;3.50;;
61572;SDS011;47465;43.094;12.434;2022-08-03T09:37:39;5.40;;;3.80;;
61572;SDS011;47465;43.094;12.434;2022-08-03T09:40:05;6.28;;;3.40;;
61572;SDS011;47465;43.094;12.434;2022-08-03T09:42:32;4.47;;;3.72;;
61572;SDS011;47465;43.094;12.434;2022-08-03T09:45:03;4.43;;;3.72;;
61572;SDS011;47465;43.094;12.434;2022-08-03T09:47:30;5.20;;;3.60;;
61572;SDS011;47465;43.094;12.434;2022-08-03T09:49:59;4.43;;;3.95;;
61572;SDS011;47465;43.094;12.434;2022-08-03T09:52:29;5.25;;;3.90;;
61572;SDS011;47465;43.094;12.434;2022-08-03T09:54:58;4.82;;;3.53;;
61572;SDS011;47465;43.094;12.434;2022-08-03T09:57:26;5.03;;;3.90;;
61572;SDS011;47465;43.094;12.434;2022-08-03T09:59:53;5.40;;;3.70;;
61572;SDS011;47465;43.094;12.434;2022-08-03T10:02:29;5.97;;;4.03;;
61572;SDS011;47465;43.094;12.434;2022-08-03T10:04:55;4.30;;;3.60;;
61572;SDS011;47465;43.094;12.434;2022-08-03T10:07:23;4.85;;;3.80;;
61572;SDS011;47465;43.094;12.434;2022-08-03T10:09:52;5.55;;;3.80;;
61572;SDS011;47465;43.094;12.434;2022-08-03T10:12:20;4.82;;;3.47;;
61572;SDS011;47465;43.094;12.434;2022-08-03T10:14:46;5.53;;;3.58;;
61572;SDS011;47465;43.094;12.434;2022-08-03T10:17:12;7.00;;;3.63;;
61572;SDS011;47465;43.094;12.434;2022-08-03T10:19:39;4.60;;;3.65;;
61572;SDS011;47465;43.094;12.434;2022-08-03T10:22:06;4.75;;;3.60;;
61572;SDS011;47465;43.094;12.434;2022-08-03T10:24:38;4.78;;;3.72;;
61572;SDS011;47465;43.094;12.434;2022-08-03T10:27:12;4.70;;;3.70;;
61572;SDS011;47465;43.094;12.434;2022-08-03T10:29:41;4.95;;;4.07;;
61572;SDS011;47465;43.094;12.434;2022-08-03T10:32:11;4.57;;;3.63;;
61572;SDS011;47465;43.094;12.434;2022-08-03T10:34:43;6.53;;;3.90;;
61572;SDS011;47465;43.094;12.434;2022-08-03T10:37:10;4.43;;;3.60;;
61572;SDS011;47465;43.094;12.434;2022-08-03T10:39:39;4.72;;;3.63;;
61572;SDS011;47465;43.094;12.434;2022-08-03T10:42:18;4.60;;;3.80;;
61572;SDS011;47465;43.094;12.434;2022-08-03T10:44:46;5.60;;;4.20;;
61572;SDS011;47465;43.094;12.434;2022-08-03T10:47:16;4.43;;;3.50;;
61572;SDS011;47465;43.094;12.434;2022-08-03T10:49:43;4.35;;;3.50;;
61572;SDS011;47465;43.094;12.434;2022-08-03T10:52:11;5.93;;;3.70;;
61572;SDS011;47465;43.094;12.434;2022-08-03T10:54:38;4.65;;;3.78;;
61572;SDS011;47465;43.094;12.434;2022-08-03T10:57:43;4.03;;;3.60;;
61572;SDS011;47465;43.094;12.434;2022-08-03T11:00:11;4.22;;;3.63;;
61572;SDS011;47465;43.094;12.434;2022-08-03T11:05:26;4.28;;;3.53;;
61572;SDS011;47465;43.094;12.434;2022-08-03T11:10:46;6.25;;;3.53;;
61572;SDS011;47465;43.094;12.434;2022-08-03T11:13:15;4.03;;;3.47;;
61572;SDS011;47465;43.094;12.434;2022-08-03T11:15:43;4.30;;;3.50;;
61572;SDS011;47465;43.094;12.434;2022-08-03T11:18:11;4.82;;;3.50;;
61572;SDS011;47465;43.094;12.434;2022-08-03T11:20:47;5.23;;;3.63;;
61572;SDS011;47465;43.094;12.434;2022-08-03T11:23:15;5.38;;;3.75;;
61572;SDS011;47465;43.094;12.434;2022-08-03T11:28:37;4.18;;;3.50;;
61572;SDS011;47465;43.094;12.434;2022-08-03T11:39:43;4.97;;;3.67;;
61572;SDS011;47465;43.094;12.434;2022-08-03T11:45:10;5.00;;;3.88;;
61572;SDS011;47465;43.094;12.434;2022-08-03T11:47:37;8.10;;;3.88;;
61572;SDS011;47465;43.094;12.434;2022-08-03T11:50:04;4.78;;;3.50;;
61572;SDS011;47465;43.094;12.434;2022-08-03T11:52:33;4.35;;;3.78;;
61572;SDS011;47465;43.094;12.434;2022-08-03T11:55:00;5.20;;;3.85;;
61572;SDS011;47465;43.094;12.434;2022-08-03T11:57:29;4.60;;;3.85;;
61572;SDS011;47465;43.094;12.434;2022-08-03T11:59:56;4.15;;;3.50;;
61572;SDS011;47465;43.094;12.434;2022-08-03T12:02:23;5.60;;;3.97;;
61572;SDS011;47465;43.094;12.434;2022-08-03T12:04:50;6.28;;;3.80;;
61572;SDS011;47465;43.094;12.434;2022-08-03T12:07:16;5.47;;;3.60;;
61572;SDS011;47465;43.094;12.434;2022-08-03T12:09:42;4.70;;;3.50;;
61572;SDS011;47465;43.094;12.434;2022-08-03T12:12:08;5.05;;;3.85;;
61572;SDS011;47465;43.094;12.434;2022-08-03T12:14:34;5.60;;;3.67;;
61572;SDS011;47465;43.094;12.434;2022-08-03T12:17:00;5.57;;;3.60;;
61572;SDS011;47465;43.094;12.434;2022-08-03T12:19:37;4.60;;;3.58;;
61572;SDS011;47465;43.094;12.434;2022-08-03T12:22:06;4.38;;;3.35;;
61572;SDS011;47465;43.094;12.434;2022-08-03T12:24:39;4.53;;;3.45;;
61572;SDS011;47465;43.094;12.434;2022-08-03T12:27:05;5.47;;;3.60;;
61572;SDS011;47465;43.094;12.434;2022-08-03T12:29:32;4.55;;;3.50;;
61572;SDS011;47465;43.094;12.434;2022-08-03T12:31:57;3.85;;;3.45;;
61572;SDS011;47465;43.094;12.434;2022-08-03T12:34:23;5.25;;;3.55;;
61572;SDS011;47465;43.094;12.434;2022-08-03T12:39:36;5.40;;;4.18;;
61572;SDS011;47465;43.094;12.434;2022-08-03T12:42:03;5.80;;;3.72;;
61572;SDS011;47465;43.094;12.434;2022-08-03T12:44:29;5.18;;;3.42;;
61572;SDS011;47465;43.094;12.434;2022-08-03T12:46:56;4.87;;;3.60;;
61572;SDS011;47465;43.094;12.434;2022-08-03T12:49:23;5.03;;;3.53;;
61572;SDS011;47465;43.094;12.434;2022-08-03T12:51:57;5.47;;;3.92;;
61572;SDS011;47465;43.094;12.434;2022-08-03T12:54:24;4.78;;;4.05;;
61572;SDS011;47465;43.094;12.434;2022-08-03T12:56:55;4.63;;;3.78;;
61572;SDS011;47465;43.094;12.434;2022-08-03T12:59:24;4.40;;;3.70;;
61572;SDS011;47465;43.094;12.434;2022-08-03T13:01:51;4.72;;;3.80;;
61572;SDS011;47465;43.094;12.434;2022-08-03T13:04:24;6.03;;;3.42;;
61572;SDS011;47465;43.094;12.434;2022-08-03T13:06:56;5.28;;;3.45;;
61572;SDS011;47465;43.094;12.434;2022-08-03T13:09:23;4.38;;;3.38;;
61572;SDS011;47465;43.094;12.434;2022-08-03T13:12:03;4.43;;;3.42;;
61572;SDS011;47465;43.094;12.434;2022-08-03T13:14:31;4.22;;;3.40;;
61572;SDS011;47465;43.094;12.434;2022-08-03T13:16:57;3.85;;;3.25;;
61572;SDS011;47465;43.094;12.434;2022-08-03T13:19:23;4.18;;;3.55;;
61572;SDS011;47465;43.094;12.434;2022-08-03T13:21:49;5.75;;;4.00;;
61572;SDS011;47465;43.094;12.434;2022-08-03T13:24:17;4.22;;;3.35;;
61572;SDS011;47465;43.094;12.434;2022-08-03T13:26:43;4.57;;;3.50;;
61572;SDS011;47465;43.094;12.434;2022-08-03T13:29:09;5.10;;;3.85;;
61572;SDS011;47465;43.094;12.434;2022-08-03T13:31:35;4.88;;;3.50;;
61572;SDS011;47465;43.094;12.434;2022-08-03T13:34:02;6.53;;;3.70;;
61572;SDS011;47465;43.094;12.434;2022-08-03T13:36:28;4.07;;;3.35;;
61572;SDS011;47465;43.094;12.434;2022-08-03T13:38:54;4.85;;;3.60;;
61572;SDS011;47465;43.094;12.434;2022-08-03T13:41:22;4.95;;;3.50;;
61572;SDS011;47465;43.094;12.434;2022-08-03T13:43:52;4.45;;;3.38;;
61572;SDS011;47465;43.094;12.434;2022-08-03T13:46:18;4.97;;;3.85;;
61572;SDS011;47465;43.094;12.434;2022-08-03T13:48:44;6.40;;;3.88;;
61572;SDS011;47465;43.094;12.434;2022-08-03T13:51:10;4.75;;;3.60;;
61572;SDS011;47465;43.094;12.434;2022-08-03T13:53:36;4.00;;;3.50;;
61572;SDS011;47465;43.094;12.434;2022-08-03T13:56:02;5.35;;;3.58;;
61572;SDS011;47465;43.094;12.434;2022-08-03T13:58:30;5.15;;;3.83;;
61572;SDS011;47465;43.094;12.434;2022-08-03T14:00:56;4.82;;;3.65;;
61572;SDS011;47465;43.094;12.434;2022-08-03T14:03:21;5.40;;;3.70;;
61572;SDS011;47465;43.094;12.434;2022-08-03T14:05:51;5.10;;;3.50;;
61572;SDS011;47465;43.094;12.434;2022-08-03T14:08:16;4.15;;;3.30;;
61572;SDS011;47465;43.094;12.434;2022-08-03T14:10:43;4.65;;;3.53;;
61572;SDS011;47465;43.094;12.434;2022-08-03T14:13:09;4.13;;;3.20;;
61572;SDS011;47465;43.094;12.434;2022-08-03T14:15:37;4.47;;;3.15;;
61572;SDS011;47465;43.094;12.434;2022-08-03T14:18:03;4.03;;;3.10;;
61572;SDS011;47465;43.094;12.434;2022-08-03T14:20:29;4.18;;;3.30;;
61572;SDS011;47465;43.094;12.434;2022-08-03T14:22:55;5.75;;;3.35;;
61572;SDS011;47465;43.094;12.434;2022-08-03T14:25:21;4.88;;;3.45;;
61572;SDS011;47465;43.094;12.434;2022-08-03T14:27:47;6.10;;;3.40;;
61572;SDS011;47465;43.094;12.434;2022-08-03T14:30:13;4.57;;;3.20;;
61572;SDS011;47465;43.094;12.434;2022-08-03T14:32:41;4.75;;;3.40;;
61572;SDS011;47465;43.094;12.434;2022-08-03T14:35:07;4.25;;;3.55;;
61572;SDS011;47465;43.094;12.434;2022-08-03T14:37:33;4.30;;;3.53;;
61572;SDS011;47465;43.094;12.434;2022-08-03T14:40:00;4.22;;;3.60;;
61572;SDS011;47465;43.094;12.434;2022-08-03T14:42:26;4.53;;;3.60;;
61572;SDS011;47465;43.094;12.434;2022-08-03T14:44:52;4.40;;;3.60;;
61572;SDS011;47465;43.094;12.434;2022-08-03T14:47:18;4.32;;;3.50;;
61572;SDS011;47465;43.094;12.434;2022-08-03T14:49:45;5.30;;;3.92;;
61572;SDS011;47465;43.094;12.434;2022-08-03T14:52:11;6.15;;;3.22;;
61572;SDS011;47465;43.094;12.434;2022-08-03T14:54:37;5.32;;;3.65;;
61572;SDS011;47465;43.094;12.434;2022-08-03T14:57:03;4.80;;;3.50;;
61572;SDS011;47465;43.094;12.434;2022-08-03T14:59:29;6.15;;;3.47;;
61572;SDS011;47465;43.094;12.434;2022-08-03T15:01:55;6.43;;;3.55;;
61572;SDS011;47465;43.094;12.434;2022-08-03T15:04:21;5.30;;;3.70;;
61572;SDS011;47465;43.094;12.434;2022-08-03T15:06:48;19.90;;;4.80;;
61572;SDS011;47465;43.094;12.434;2022-08-03T15:09:14;6.97;;;3.88;;
61572;SDS011;47465;43.094;12.434;2022-08-03T15:11:40;6.95;;;3.75;;
61572;SDS011;47465;43.094;12.434;2022-08-03T15:14:07;5.70;;;3.90;;